Kitty C — 2EIQ6 — position and weather

sailwx.info

Track history (hours):
 
Tides and Currents Weather Stations Pressure Air Temp Water Temp Dewpoint Dewpoint Depression Visibility Wind Speed Wind Dir Waves Ship Positions

Kitty C

Last reported at 2015-May-27 18:12 UTC. Time now 2015-May-27 21:58 UTC.
Position N 28°37' W 014°48'.

Length 106 m; draft 6.1 m.

Type: Cargo ship. MMSI: 235085464.

Date/timePositionNaut miles runAvg speedWind from/ knotsBaromVisibWave heightAir tempDewpointWater temp
2015-May-27 18:12N 28°37' W 014°48'6 9.2
2015-May-27 17:32N 28°33' W 014°53'9 9.1
2015-May-27 16:33N 28°27' W 015°01'9 9.0
2015-May-27 15:33N 28°20' W 015°08'9 9.3
2015-May-27 14:33N 28°14' W 015°15'9 9.4
2015-May-27 13:33N 28°07' W 015°23'2 1.9
2015-May-27 12:25N 28°08' W 015°25'0 0.0
2015-May-27 11:25N 28°08' W 015°25'0 0.0
2015-May-27 10:25N 28°08' W 015°25'0 0.0
2015-May-27 09:28N 28°08' W 015°25'0 0.0
2015-May-27 08:33N 28°08' W 015°25'0 0.0
2015-May-27 07:33N 28°08' W 015°25'2 2.3
2015-May-27 06:33N 28°07' W 015°23'4 3.9
2015-May-27 05:33N 28°11' W 015°23'8 8.1
2015-May-27 04:33N 28°13' W 015°32'9 8.9
2015-May-27 03:33N 28°14' W 015°42'9 9.4
2015-May-27 02:34N 28°15' W 015°53'11 8.5
2015-May-27 01:19N 28°10' W 016°03'8 9.0
2015-May-27 00:29N 28°05' W 016°09'  
Track history (hours):
 
Tides and Currents Weather Stations Pressure Air Temp Water Temp Dewpoint Dewpoint Depression Visibility Wind Speed Wind Dir Waves Ship Positions

Kitty C

Last reported at 2015-May-27 18:12 UTC. Time now 2015-May-27 21:58 UTC.
Position N 28°37' W 014°48'.

Length 106 m; draft 6.1 m.

Type: Cargo ship. MMSI: 235085464.

Date/timePositionNaut miles runAvg speedWind from/ knotsBaromVisibWave heightAir tempDewpointWater temp
2015-May-27 18:12N 28°37' W 014°48'6 9.2
2015-May-27 17:32N 28°33' W 014°53'9 9.1
2015-May-27 16:33N 28°27' W 015°01'9 9.0
2015-May-27 15:33N 28°20' W 015°08'9 9.3
2015-May-27 14:33N 28°14' W 015°15'9 9.4
2015-May-27 13:33N 28°07' W 015°23'2 1.9
2015-May-27 12:25N 28°08' W 015°25'0 0.0
2015-May-27 11:25N 28°08' W 015°25'0 0.0
2015-May-27 10:25N 28°08' W 015°25'0 0.0
2015-May-27 09:28N 28°08' W 015°25'0 0.0
2015-May-27 08:33N 28°08' W 015°25'0 0.0
2015-May-27 07:33N 28°08' W 015°25'2 2.3
2015-May-27 06:33N 28°07' W 015°23'4 3.9
2015-May-27 05:33N 28°11' W 015°23'8 8.1
2015-May-27 04:33N 28°13' W 015°32'9 8.9
2015-May-27 03:33N 28°14' W 015°42'9 9.4
2015-May-27 02:34N 28°15' W 015°53'11 8.5
2015-May-27 01:19N 28°10' W 016°03'8 9.0
2015-May-27 00:29N 28°05' W 016°09'  

Dump ship's entire track history